Time;durP1;ratioP1;P1;durP2;ratioP2;P2;SDS_P1;SDS_P2;PMS_P1;PMS_P2;Temp;Humidity;BMP_temperature;BMP_pressure;BME280_temperature;BME280_humidity;BME280_pressure;Samples;Min_cycle;Max_cycle;Signal;HPM_P1;HPM_P2
2023/02/12 00:00:37;;;;;;;35.88;27.83;;;;;;;;;;5040754;28;20792;-88
2023/02/12 00:03:04;;;;;;;41.83;30.05;;;;;;;;;;5059983;28;20385;-89
2023/02/12 00:05:31;;;;;;;38.72;27.30;;;;;;;;;;5048393;28;20851;-89
2023/02/12 00:07:57;;;;;;;36.72;27.25;;;;;;;;;;5067252;28;20916;-90
2023/02/12 00:10:23;;;;;;;38.07;28.03;;;;;;;;;;5056712;28;20446;-89
2023/02/12 00:12:49;;;;;;;38.00;27.60;;;;;;;;;;5067061;28;20383;-89
2023/02/12 00:15:15;;;;;;;38.42;28.92;;;;;;;;;;5051676;28;20428;-89
2023/02/12 00:17:41;;;;;;;38.53;28.77;;;;;;;;;;5072458;28;20433;-89
2023/02/12 00:20:07;;;;;;;42.95;29.83;;;;;;;;;;5079372;28;20384;-90
2023/02/12 00:22:33;;;;;;;40.90;29.23;;;;;;;;;;5089110;28;20859;-89
2023/02/12 00:24:59;;;;;;;41.00;28.77;;;;;;;;;;5077030;28;20412;-90
2023/02/12 00:27:25;;;;;;;39.40;28.67;;;;;;;;;;5089340;28;20371;-90
2023/02/12 00:29:51;;;;;;;37.47;28.15;;;;;;;;;;5077612;28;20407;-89
2023/02/12 00:32:18;;;;;;;37.45;28.08;;;;;;;;;;5083256;28;20384;-89
2023/02/12 00:34:47;;;;;;;36.42;27.55;;;;;;;;;;5056663;28;20908;-89
2023/02/12 00:37:13;;;;;;;37.40;28.23;;;;;;;;;;5056415;28;20380;-89
2023/02/12 00:39:39;;;;;;;36.00;27.30;;;;;;;;;;5072463;28;20395;-88
2023/02/12 00:42:06;;;;;;;39.58;29.08;;;;;;;;;;5072916;28;20382;-90
2023/02/12 00:44:32;;;;;;;38.38;27.25;;;;;;;;;;5072380;28;20457;-89
2023/02/12 00:47:01;;;;;;;36.10;26.75;;;;;;;;;;5054612;28;20392;-90
2023/02/12 00:49:27;;;;;;;34.47;26.30;;;;;;;;;;5072593;28;20398;-89
2023/02/12 00:51:53;;;;;;;34.85;26.05;;;;;;;;;;5072171;28;20380;-90
2023/02/12 00:54:19;;;;;;;34.40;25.45;;;;;;;;;;5070167;28;20422;-90
2023/02/12 00:56:45;;;;;;;32.83;25.63;;;;;;;;;;5052712;28;20388;-89
2023/02/12 00:59:11;;;;;;;32.88;25.33;;;;;;;;;;5070806;28;20383;-88
2023/02/12 01:01:37;;;;;;;34.23;26.13;;;;;;;;;;5052740;28;20469;-91
2023/02/12 01:04:03;;;;;;;33.60;25.73;;;;;;;;;;5053118;28;20403;-90
2023/02/12 01:06:29;;;;;;;34.17;26.50;;;;;;;;;;5050937;28;20864;-90
2023/02/12 01:08:55;;;;;;;33.35;25.90;;;;;;;;;;5070070;28;20470;-90
2023/02/12 01:11:21;;;;;;;33.00;25.42;;;;;;;;;;5067659;28;20425;-89
2023/02/12 01:13:47;;;;;;;35.72;26.63;;;;;;;;;;5052799;28;20474;-89
2023/02/12 01:16:18;;;;;;;33.80;25.77;;;;;;;;;;5043110;28;20836;-90
2023/02/12 01:18:44;;;;;;;34.40;25.52;;;;;;;;;;5071899;28;20384;-91
2023/02/12 01:21:10;;;;;;;34.95;26.15;;;;;;;;;;5052518;28;20379;-89
2023/02/12 01:23:36;;;;;;;36.08;26.45;;;;;;;;;;5070020;28;20387;-91
2023/02/12 01:26:03;;;;;;;37.53;28.30;;;;;;;;;;5070195;28;20827;-89
2023/02/12 01:28:29;;;;;;;35.33;26.27;;;;;;;;;;5050174;28;20913;-91
2023/02/12 01:30:55;;;;;;;32.60;25.65;;;;;;;;;;5058060;28;20392;-90
2023/02/12 01:33:21;;;;;;;34.83;25.48;;;;;;;;;;5053450;28;20415;-90
2023/02/12 01:35:47;;;;;;;34.42;25.40;;;;;;;;;;5074408;28;20864;-90
2023/02/12 01:38:13;;;;;;;31.77;25.38;;;;;;;;;;5074202;28;20375;-90
2023/02/12 01:40:39;;;;;;;31.65;25.67;;;;;;;;;;5074248;28;20857;-91
2023/02/12 01:43:06;;;;;;;34.83;26.02;;;;;;;;;;5074305;28;20386;-90
2023/02/12 01:45:35;;;;;;;33.70;25.50;;;;;;;;;;5056121;28;20926;-90
2023/02/12 01:48:01;;;;;;;35.67;25.52;;;;;;;;;;5073794;28;20409;-90
2023/02/12 01:50:27;;;;;;;31.10;24.80;;;;;;;;;;5072975;28;20489;-91
2023/02/12 01:52:56;;;;;;;33.53;26.05;;;;;;;;;;5053161;28;20792;-91
2023/02/12 01:55:23;;;;;;;34.47;26.52;;;;;;;;;;5069069;28;20392;-90
2023/02/12 01:57:49;;;;;;;32.47;24.90;;;;;;;;;;5074140;28;20926;-92
2023/02/12 02:00:17;;;;;;;33.30;25.33;;;;;;;;;;5073737;28;20416;-91
2023/02/12 02:02:45;;;;;;;30.02;24.40;;;;;;;;;;5073680;28;20382;-91
2023/02/12 02:05:12;;;;;;;33.15;25.52;;;;;;;;;;5064753;28;20389;-92
2023/02/12 02:07:38;;;;;;;34.63;25.63;;;;;;;;;;5072472;28;20417;-89
2023/02/12 02:10:05;;;;;;;31.92;24.80;;;;;;;;;;5068217;28;20440;-91
2023/02/12 02:15:15;;;;;;;28.92;23.30;;;;;;;;;;5066016;28;20430;-89
2023/02/12 02:17:53;;;;;;;34.22;25.73;;;;;;;;;;5055787;28;20418;-89
2023/02/12 02:20:31;;;;;;;30.55;24.25;;;;;;;;;;5073480;28;20443;-90
2023/02/12 02:23:00;;;;;;;33.28;24.23;;;;;;;;;;5055267;28;20818;-91
2023/02/12 02:25:25;;;;;;;31.42;24.02;;;;;;;;;;5052846;28;20438;-90
2023/02/12 02:28:17;;;;;;;29.95;24.05;;;;;;;;;;5073415;28;20471;-89
2023/02/12 02:30:50;;;;;;;32.97;25.13;;;;;;;;;;5073074;28;20893;-90
2023/02/12 02:33:22;;;;;;;29.52;23.85;;;;;;;;;;5070879;28;20463;-91
2023/02/12 02:35:52;;;;;;;32.13;24.43;;;;;;;;;;5055600;28;20384;-89
2023/02/12 02:38:37;;;;;;;32.15;24.60;;;;;;;;;;5072821;28;20404;-90
2023/02/12 02:41:15;;;;;;;29.95;23.17;;;;;;;;;;5061180;28;20462;-91
2023/02/12 02:43:46;;;;;;;31.15;23.60;;;;;;;;;;5048821;28;20412;-89
2023/02/12 02:46:36;;;;;;;32.10;24.10;;;;;;;;;;5055299;28;20408;-90
2023/02/12 02:49:07;;;;;;;29.63;24.13;;;;;;;;;;5043202;28;20400;-90
2023/02/12 02:51:36;;;;;;;30.73;23.77;;;;;;;;;;5054510;28;20415;-90
2023/02/12 02:54:07;;;;;;;29.48;23.20;;;;;;;;;;5073018;28;20866;-91
2023/02/12 02:56:34;;;;;;;30.05;23.85;;;;;;;;;;5074449;28;20376;-90
2023/02/12 02:59:02;;;;;;;31.10;23.67;;;;;;;;;;5074345;28;20395;-90
2023/02/12 03:01:32;;;;;;;31.10;24.35;;;;;;;;;;5073849;28;20410;-90
2023/02/12 03:04:14;;;;;;;31.15;23.50;;;;;;;;;;5073856;28;20879;-92
2023/02/12 03:06:46;;;;;;;31.95;23.80;;;;;;;;;;5074144;28;20509;-91
2023/02/12 03:09:23;;;;;;;32.63;24.58;;;;;;;;;;5073848;28;20402;-91
2023/02/12 03:11:49;;;;;;;27.85;23.38;;;;;;;;;;5056563;28;20388;-90
2023/02/12 03:14:18;;;;;;;29.67;23.95;;;;;;;;;;5073585;28;20399;-91
2023/02/12 03:16:47;;;;;;;31.35;23.85;;;;;;;;;;5073676;28;20375;-90
2023/02/12 03:19:19;;;;;;;29.98;23.55;;;;;;;;;;5074241;28;20376;-89
2023/02/12 03:21:55;;;;;;;31.50;24.48;;;;;;;;;;5073891;28;20376;-90
2023/02/12 03:24:27;;;;;;;30.95;23.50;;;;;;;;;;5055599;28;20482;-90
2023/02/12 03:27:04;;;;;;;30.17;23.65;;;;;;;;;;5056006;28;20410;-91
2023/02/12 03:29:31;;;;;;;30.27;23.98;;;;;;;;;;5073434;28;20380;-90
2023/02/12 03:32:08;;;;;;;32.35;23.80;;;;;;;;;;5073805;28;20394;-90
2023/02/12 03:34:40;;;;;;;31.70;23.90;;;;;;;;;;5055665;28;20404;-91
2023/02/12 03:37:17;;;;;;;30.45;23.67;;;;;;;;;;5073992;28;20410;-91
2023/02/12 03:39:43;;;;;;;29.30;23.53;;;;;;;;;;5073173;28;20400;-89
2023/02/12 03:42:12;;;;;;;31.63;24.17;;;;;;;;;;5073564;28;20857;-90
2023/02/12 03:44:56;;;;;;;32.75;25.08;;;;;;;;;;5055852;28;20387;-89
2023/02/12 03:47:25;;;;;;;34.63;24.63;;;;;;;;;;5058714;28;20426;-91
2023/02/12 03:50:06;;;;;;;41.65;28.73;;;;;;;;;;5091307;28;20467;-89
2023/02/12 03:52:33;;;;;;;33.50;25.58;;;;;;;;;;5077560;28;25178;-90
2023/02/12 03:54:59;;;;;;;33.70;25.02;;;;;;;;;;5094878;28;20407;-90
2023/02/12 03:57:29;;;;;;;33.75;25.58;;;;;;;;;;5094412;28;20380;-90
2023/02/12 03:59:56;;;;;;;32.07;24.23;;;;;;;;;;5084884;28;20393;-89
2023/02/12 04:02:21;;;;;;;34.50;25.83;;;;;;;;;;5076230;28;20429;-89
2023/02/12 04:04:48;;;;;;;35.35;25.13;;;;;;;;;;5075150;28;20398;-89
2023/02/12 04:07:14;;;;;;;34.40;25.55;;;;;;;;;;5055766;28;20387;-90
2023/02/12 04:09:40;;;;;;;33.30;25.65;;;;;;;;;;5072845;28;20463;-89
2023/02/12 04:12:25;;;;;;;38.67;26.85;;;;;;;;;;5054967;28;20730;-88
2023/02/12 04:14:57;;;;;;;36.30;26.38;;;;;;;;;;5054653;28;25104;-88
2023/02/12 04:17:35;;;;;;;33.40;25.27;;;;;;;;;;5072960;28;20460;-89
2023/02/12 04:20:13;;;;;;;33.63;24.77;;;;;;;;;;5073252;28;20733;-91
2023/02/12 04:22:39;;;;;;;37.17;26.33;;;;;;;;;;5072833;28;20375;-88
2023/02/12 04:25:05;;;;;;;37.40;26.58;;;;;;;;;;5072353;28;20897;-89
2023/02/12 04:27:37;;;;;;;34.25;24.70;;;;;;;;;;5071982;28;20457;-89
2023/02/12 04:30:12;;;;;;;31.30;24.13;;;;;;;;;;5073245;28;20418;-88
2023/02/12 04:32:47;;;;;;;34.80;24.67;;;;;;;;;;5072120;28;20380;-88
2023/02/12 04:35:29;;;;;;;31.80;24.52;;;;;;;;;;5072535;28;20458;-89
2023/02/12 04:38:03;;;;;;;33.25;25.27;;;;;;;;;;5072715;28;20475;-89
2023/02/12 04:40:30;;;;;;;34.47;25.52;;;;;;;;;;5071976;28;20410;-89
2023/02/12 04:42:56;;;;;;;33.93;24.60;;;;;;;;;;5072154;28;20430;-89
2023/02/12 04:45:24;;;;;;;30.67;24.02;;;;;;;;;;5071809;28;20462;-88
2023/02/12 04:47:50;;;;;;;33.22;25.00;;;;;;;;;;5072422;28;20380;-87
2023/02/12 04:50:16;;;;;;;31.58;24.33;;;;;;;;;;5071959;28;20374;-88
2023/02/12 04:52:42;;;;;;;32.80;24.95;;;;;;;;;;5072414;28;20379;-88
2023/02/12 04:55:08;;;;;;;34.92;25.92;;;;;;;;;;5072249;28;20830;-88
2023/02/12 04:57:34;;;;;;;32.63;25.27;;;;;;;;;;5054381;28;20372;-88
2023/02/12 05:00:00;;;;;;;33.78;25.48;;;;;;;;;;5072138;28;20868;-88
2023/02/12 05:02:26;;;;;;;35.30;25.30;;;;;;;;;;5071944;28;20375;-88
2023/02/12 05:04:52;;;;;;;32.92;25.02;;;;;;;;;;5070942;28;20387;-89
2023/02/12 05:07:18;;;;;;;34.55;26.17;;;;;;;;;;5071853;28;20394;-88
2023/02/12 05:09:44;;;;;;;31.20;24.55;;;;;;;;;;5054568;28;20733;-88
2023/02/12 05:12:10;;;;;;;30.52;25.05;;;;;;;;;;5072078;28;20376;-89
2023/02/12 05:14:36;;;;;;;31.27;24.25;;;;;;;;;;5054053;28;20395;-88
2023/02/12 05:17:02;;;;;;;33.78;25.52;;;;;;;;;;5071620;28;20372;-88
2023/02/12 05:19:28;;;;;;;34.10;25.80;;;;;;;;;;5071785;28;20386;-88
2023/02/12 05:21:54;;;;;;;33.92;25.63;;;;;;;;;;5071938;28;20376;-89
2023/02/12 05:24:20;;;;;;;32.85;25.27;;;;;;;;;;5072151;28;20423;-88
2023/02/12 05:26:47;;;;;;;34.08;25.65;;;;;;;;;;5071834;28;20399;-88
2023/02/12 05:29:13;;;;;;;32.47;25.43;;;;;;;;;;5071993;28;20380;-88
2023/02/12 05:31:39;;;;;;;32.88;25.20;;;;;;;;;;5054288;28;20445;-88
2023/02/12 05:34:06;;;;;;;33.47;25.40;;;;;;;;;;5071604;28;20403;-88
2023/02/12 05:36:32;;;;;;;31.60;24.40;;;;;;;;;;5053464;28;20770;-88
2023/02/12 05:38:59;;;;;;;34.10;24.63;;;;;;;;;;5050056;28;20380;-88
2023/02/12 05:41:25;;;;;;;32.38;24.48;;;;;;;;;;5053902;28;20892;-89
2023/02/12 05:43:51;;;;;;;32.90;24.88;;;;;;;;;;5070878;28;20865;-86
2023/02/12 05:46:18;;;;;;;34.92;25.13;;;;;;;;;;5071965;28;20399;-88
2023/02/12 05:48:44;;;;;;;31.30;24.13;;;;;;;;;;5071866;28;20464;-88
2023/02/12 05:51:12;;;;;;;30.35;23.65;;;;;;;;;;5072058;28;20384;-88
2023/02/12 05:53:39;;;;;;;28.23;21.85;;;;;;;;;;5071050;28;20409;-87
2023/02/12 05:56:09;;;;;;;29.23;22.10;;;;;;;;;;5071883;28;20477;-87
2023/02/12 05:58:35;;;;;;;29.95;23.27;;;;;;;;;;5071172;28;20387;-87
2023/02/12 06:01:00;;;;;;;30.87;24.50;;;;;;;;;;5071737;28;20367;-87
2023/02/12 06:03:27;;;;;;;30.55;23.65;;;;;;;;;;5071684;28;20376;-88
2023/02/12 06:05:53;;;;;;;30.42;24.05;;;;;;;;;;5053990;28;20388;-87
2023/02/12 06:08:19;;;;;;;30.58;22.67;;;;;;;;;;5071644;28;20409;-87
2023/02/12 06:10:45;;;;;;;30.10;22.70;;;;;;;;;;5071511;28;20384;-88
2023/02/12 06:13:11;;;;;;;27.95;23.05;;;;;;;;;;5053134;28;20388;-88
2023/02/12 06:15:37;;;;;;;30.55;23.05;;;;;;;;;;5054499;28;20815;-87
2023/02/12 06:18:03;;;;;;;30.38;22.10;;;;;;;;;;5075261;28;20418;-87
2023/02/12 06:20:29;;;;;;;30.10;23.35;;;;;;;;;;5072940;28;20881;-88
2023/02/12 06:22:55;;;;;;;29.27;22.73;;;;;;;;;;5073659;28;20391;-89
2023/02/12 06:25:21;;;;;;;30.13;22.67;;;;;;;;;;5073984;28;20403;-87
2023/02/12 06:27:47;;;;;;;28.73;22.90;;;;;;;;;;5055102;28;20388;-89
2023/02/12 06:30:13;;;;;;;30.17;23.13;;;;;;;;;;5073925;28;20880;-89
2023/02/12 06:32:39;;;;;;;27.40;21.83;;;;;;;;;;5072887;28;20522;-89
2023/02/12 06:35:06;;;;;;;26.40;21.50;;;;;;;;;;5072511;28;20972;-87
2023/02/12 06:37:35;;;;;;;27.65;21.95;;;;;;;;;;5054891;28;20880;-87
2023/02/12 06:40:01;;;;;;;29.05;22.30;;;;;;;;;;5076406;28;20451;-86
2023/02/12 06:42:27;;;;;;;28.50;22.02;;;;;;;;;;5074879;28;20521;-88
2023/02/12 06:44:53;;;;;;;26.73;21.55;;;;;;;;;;5072038;28;20819;-86
2023/02/12 06:47:19;;;;;;;27.17;21.40;;;;;;;;;;5073746;28;20506;-88
2023/02/12 06:49:45;;;;;;;29.45;22.80;;;;;;;;;;5073294;28;20391;-87
2023/02/12 06:52:12;;;;;;;25.90;21.05;;;;;;;;;;5073487;28;20384;-86
2023/02/12 06:54:38;;;;;;;31.42;23.15;;;;;;;;;;5072970;28;20406;-85
2023/02/12 06:57:04;;;;;;;23.55;18.98;;;;;;;;;;5055969;28;20479;-87
2023/02/12 06:59:30;;;;;;;22.65;19.02;;;;;;;;;;5073594;28;20376;-88
2023/02/12 07:01:56;;;;;;;24.15;19.55;;;;;;;;;;5052472;28;20793;-87
2023/02/12 07:04:22;;;;;;;23.73;20.05;;;;;;;;;;5073492;28;20403;-87
2023/02/12 07:06:48;;;;;;;24.77;20.10;;;;;;;;;;5072979;28;20423;-91
2023/02/12 07:09:14;;;;;;;24.95;19.63;;;;;;;;;;5071648;28;20485;-88
2023/02/12 07:11:40;;;;;;;25.30;19.92;;;;;;;;;;5073793;28;20466;-91
2023/02/12 07:14:07;;;;;;;23.52;19.48;;;;;;;;;;5079788;28;20445;-90
2023/02/12 07:16:33;;;;;;;22.92;19.52;;;;;;;;;;5090352;28;20448;-88
2023/02/12 07:18:59;;;;;;;24.55;19.50;;;;;;;;;;5092967;28;20379;-89
2023/02/12 07:21:25;;;;;;;22.50;18.27;;;;;;;;;;5078026;28;20443;-88
2023/02/12 07:23:52;;;;;;;22.50;18.60;;;;;;;;;;5094935;28;21066;-87
2023/02/12 07:26:18;;;;;;;24.30;19.43;;;;;;;;;;5084391;28;20472;-86
2023/02/12 07:28:44;;;;;;;21.55;18.10;;;;;;;;;;5072310;28;20396;-85
2023/02/12 07:31:15;;;;;;;24.08;18.67;;;;;;;;;;5056222;28;20894;-87
2023/02/12 07:33:41;;;;;;;23.52;19.52;;;;;;;;;;5054325;28;20872;-87
2023/02/12 07:36:08;;;;;;;23.58;19.80;;;;;;;;;;5058670;28;20892;-87
2023/02/12 07:38:41;;;;;;;23.70;20.02;;;;;;;;;;5077867;28;20387;-87
2023/02/12 07:41:30;;;;;;;23.95;20.42;;;;;;;;;;5072717;28;20386;-85
2023/02/12 07:43:57;;;;;;;23.75;19.58;;;;;;;;;;5054263;28;20413;-86
2023/02/12 07:46:28;;;;;;;25.83;20.02;;;;;;;;;;5067577;28;20517;-87
2023/02/12 07:48:54;;;;;;;25.65;20.38;;;;;;;;;;5072593;28;20455;-86
2023/02/12 07:51:20;;;;;;;25.27;20.33;;;;;;;;;;5055001;28;20392;-87
2023/02/12 07:53:47;;;;;;;27.23;21.40;;;;;;;;;;5072293;28;20765;-90
2023/02/12 07:56:14;;;;;;;26.35;21.90;;;;;;;;;;5072551;28;20387;-87
2023/02/12 07:58:41;;;;;;;25.20;20.73;;;;;;;;;;5071688;28;20400;-87
2023/02/12 08:01:11;;;;;;;26.10;21.02;;;;;;;;;;5072454;28;20380;-87
2023/02/12 08:03:37;;;;;;;26.23;20.50;;;;;;;;;;5072532;28;20418;-87
2023/02/12 08:06:10;;;;;;;30.10;23.30;;;;;;;;;;5072834;28;20419;-90
2023/02/12 08:08:37;;;;;;;35.28;25.35;;;;;;;;;;5071315;28;20425;-89
2023/02/12 08:11:04;;;;;;;35.45;25.08;;;;;;;;;;5070970;28;20382;-88
2023/02/12 08:13:31;;;;;;;31.77;23.63;;;;;;;;;;5071269;28;20399;-90
2023/02/12 08:16:04;;;;;;;32.30;23.08;;;;;;;;;;5069787;28;20380;-90
2023/02/12 08:18:31;;;;;;;31.45;23.17;;;;;;;;;;5070640;28;20367;-90
2023/02/12 08:21:03;;;;;;;32.47;23.05;;;;;;;;;;5067496;28;20381;-92
2023/02/12 08:23:29;;;;;;;31.70;22.83;;;;;;;;;;5044781;28;20430;-92
2023/02/12 08:25:55;;;;;;;33.38;22.95;;;;;;;;;;5052808;28;20491;-94
2023/02/12 08:28:24;;;;;;;34.45;24.25;;;;;;;;;;5056501;28;20455;-93
2023/02/12 08:30:52;;;;;;;37.78;25.08;;;;;;;;;;5056525;28;20403;-92
2023/02/12 08:39:19;;;;;;;40.05;26.45;;;;;;;;;;5048599;28;20410;-93
2023/02/12 08:41:46;;;;;;;36.25;22.88;;;;;;;;;;5028281;28;20390;-84
2023/02/12 08:44:12;;;;;;;39.03;24.33;;;;;;;;;;5052138;28;20413;-87
2023/02/12 08:46:42;;;;;;;45.03;26.30;;;;;;;;;;5047641;28;20397;-85
2023/02/12 08:49:12;;;;;;;43.80;25.40;;;;;;;;;;5034015;28;20476;-84
2023/02/12 08:51:40;;;;;;;49.08;26.50;;;;;;;;;;5052381;28;20381;-85
2023/02/12 08:54:07;;;;;;;41.97;25.30;;;;;;;;;;5051853;28;20402;-84
2023/02/12 08:56:34;;;;;;;38.97;24.70;;;;;;;;;;5052308;28;20383;-84
2023/02/12 08:59:01;;;;;;;40.55;25.40;;;;;;;;;;5052432;28;20376;-84
2023/02/12 09:01:29;;;;;;;35.93;24.17;;;;;;;;;;5052636;28;20412;-84
2023/02/12 09:03:55;;;;;;;36.70;25.23;;;;;;;;;;5034159;28;20415;-85
2023/02/12 09:06:22;;;;;;;56.22;35.33;;;;;;;;;;5051857;28;20389;-84
2023/02/12 09:08:50;;;;;;;38.23;25.73;;;;;;;;;;5052290;28;20457;-83
2023/02/12 09:11:17;;;;;;;36.40;24.87;;;;;;;;;;5051855;28;20394;-85
2023/02/12 09:13:44;;;;;;;32.97;23.10;;;;;;;;;;5051961;28;20411;-85
2023/02/12 09:16:10;;;;;;;33.35;23.10;;;;;;;;;;5052334;28;20380;-85
2023/02/12 09:18:37;;;;;;;29.25;21.42;;;;;;;;;;5041026;28;20371;-85
2023/02/12 09:21:07;;;;;;;27.33;20.30;;;;;;;;;;5051346;28;20989;-85
2023/02/12 09:23:34;;;;;;;26.48;19.85;;;;;;;;;;5052033;28;20426;-85
2023/02/12 09:26:00;;;;;;;27.67;21.23;;;;;;;;;;5050176;28;20475;-84
2023/02/12 09:28:26;;;;;;;28.48;21.33;;;;;;;;;;5051914;28;20423;-85
2023/02/12 09:30:52;;;;;;;28.70;21.67;;;;;;;;;;5051168;28;20902;-84
2023/02/12 09:33:18;;;;;;;27.85;21.83;;;;;;;;;;5051544;28;20387;-85
2023/02/12 09:35:44;;;;;;;26.60;20.57;;;;;;;;;;5051724;28;20412;-85
2023/02/12 09:38:09;;;;;;;26.17;20.23;;;;;;;;;;5051820;28;20403;-85
2023/02/12 09:40:47;;;;;;;27.52;20.58;;;;;;;;;;5051567;28;20384;-85
2023/02/12 09:43:33;;;;;;;26.42;20.30;;;;;;;;;;5051717;28;20380;-84
2023/02/12 09:46:05;;;;;;;27.58;20.45;;;;;;;;;;5051854;28;20385;-85
2023/02/12 09:48:34;;;;;;;25.37;19.67;;;;;;;;;;5033727;28;21005;-85
2023/02/12 09:51:04;;;;;;;23.17;18.52;;;;;;;;;;5054216;28;20412;-85
2023/02/12 09:53:31;;;;;;;22.13;18.35;;;;;;;;;;5055756;28;20445;-84
2023/02/12 09:55:57;;;;;;;23.10;18.33;;;;;;;;;;5055885;28;20381;-84
2023/02/12 09:58:29;;;;;;;22.63;18.38;;;;;;;;;;5055249;28;20464;-85
2023/02/12 10:00:55;;;;;;;20.60;17.77;;;;;;;;;;5055759;28;20932;-84
2023/02/12 10:03:21;;;;;;;22.98;17.95;;;;;;;;;;5055546;28;20381;-85
2023/02/12 10:05:59;;;;;;;22.48;17.00;;;;;;;;;;5055474;28;20468;-85
2023/02/12 10:08:31;;;;;;;19.42;15.75;;;;;;;;;;5055308;28;20381;-84
2023/02/12 10:11:00;;;;;;;18.23;15.55;;;;;;;;;;5055452;28;20412;-85
2023/02/12 10:13:48;;;;;;;18.10;15.60;;;;;;;;;;5055239;28;20492;-84
2023/02/12 10:16:35;;;;;;;17.25;15.25;;;;;;;;;;5055434;28;20449;-84
2023/02/12 10:19:22;;;;;;;17.50;14.98;;;;;;;;;;5054761;28;20406;-84
2023/02/12 10:21:57;;;;;;;17.65;15.55;;;;;;;;;;5055340;28;20404;-85
2023/02/12 10:24:38;;;;;;;18.40;15.43;;;;;;;;;;5054656;28;20482;-85
2023/02/12 10:27:20;;;;;;;17.17;15.37;;;;;;;;;;5055215;28;20409;-85
2023/02/12 10:29:47;;;;;;;17.33;15.43;;;;;;;;;;5055381;28;20810;-84
2023/02/12 10:32:33;;;;;;;18.48;16.10;;;;;;;;;;5055178;28;20382;-85
2023/02/12 10:34:59;;;;;;;18.42;15.20;;;;;;;;;;5054691;28;20405;-85
2023/02/12 10:37:44;;;;;;;18.73;15.32;;;;;;;;;;5029793;28;20414;-85
2023/02/12 10:40:16;;;;;;;18.10;15.20;;;;;;;;;;5054787;28;20380;-85
2023/02/12 10:42:44;;;;;;;17.40;15.30;;;;;;;;;;5040092;28;20383;-85
2023/02/12 10:45:14;;;;;;;16.23;14.35;;;;;;;;;;5055441;28;20515;-85
2023/02/12 10:47:40;;;;;;;17.58;14.88;;;;;;;;;;5051204;28;20418;-85
2023/02/12 10:50:19;;;;;;;16.77;14.18;;;;;;;;;;5040666;28;20457;-85
2023/02/12 10:52:47;;;;;;;17.50;14.43;;;;;;;;;;5064379;28;20388;-85
2023/02/12 10:55:27;;;;;;;16.17;14.48;;;;;;;;;;5068746;28;20419;-85
2023/02/12 10:57:54;;;;;;;19.35;15.15;;;;;;;;;;5059683;28;20408;-85
2023/02/12 11:00:28;;;;;;;18.50;15.15;;;;;;;;;;5057646;28;20381;-86
2023/02/12 11:03:00;;;;;;;18.53;15.47;;;;;;;;;;5055734;28;20443;-85
2023/02/12 11:05:28;;;;;;;17.30;15.27;;;;;;;;;;5054958;28;20439;-85
2023/02/12 11:07:56;;;;;;;22.10;16.55;;;;;;;;;;5055428;28;20846;-85
2023/02/12 11:10:27;;;;;;;21.60;16.80;;;;;;;;;;5054710;28;20389;-86
2023/02/12 11:12:53;;;;;;;24.15;18.05;;;;;;;;;;5054680;28;20392;-85
2023/02/12 11:15:21;;;;;;;25.50;18.65;;;;;;;;;;5054371;28;20444;-85
2023/02/12 11:17:55;;;;;;;23.38;18.75;;;;;;;;;;5054760;28;20374;-85
2023/02/12 11:20:25;;;;;;;25.33;18.40;;;;;;;;;;5054302;28;20797;-85
2023/02/12 11:22:53;;;;;;;27.42;19.27;;;;;;;;;;5052014;28;20377;-85
2023/02/12 11:25:19;;;;;;;26.52;18.77;;;;;;;;;;5054301;28;20378;-86
2023/02/12 11:27:58;;;;;;;22.80;17.83;;;;;;;;;;5054259;28;20381;-85
2023/02/12 11:30:24;;;;;;;24.75;18.25;;;;;;;;;;5054260;28;20397;-85
2023/02/12 11:32:51;;;;;;;24.58;18.33;;;;;;;;;;5053356;28;20399;-85
2023/02/12 11:35:25;;;;;;;24.67;18.00;;;;;;;;;;5054043;28;20412;-85
2023/02/12 11:37:59;;;;;;;25.17;17.95;;;;;;;;;;5053842;28;20830;-85
2023/02/12 11:40:27;;;;;;;21.65;16.45;;;;;;;;;;5054313;28;20377;-85
2023/02/12 11:43:05;;;;;;;23.27;18.40;;;;;;;;;;5054247;28;20400;-85
2023/02/12 11:45:33;;;;;;;19.75;15.82;;;;;;;;;;5052885;28;20382;-85
2023/02/12 11:47:59;;;;;;;21.10;16.65;;;;;;;;;;5035423;28;20895;-85
2023/02/12 11:50:30;;;;;;;17.55;14.75;;;;;;;;;;5053172;28;20385;-85
2023/02/12 11:53:01;;;;;;;15.15;13.55;;;;;;;;;;5053321;28;20763;-85
2023/02/12 11:55:29;;;;;;;15.40;13.40;;;;;;;;;;5053110;28;20401;-85
2023/02/12 11:58:01;;;;;;;14.10;12.67;;;;;;;;;;5053409;28;20385;-86
2023/02/12 12:00:38;;;;;;;13.73;12.43;;;;;;;;;;5036264;28;20464;-86
2023/02/12 12:03:10;;;;;;;12.52;11.32;;;;;;;;;;5053575;28;20394;-85
2023/02/12 12:05:38;;;;;;;12.60;11.30;;;;;;;;;;5053753;28;20385;-85
2023/02/12 12:08:11;;;;;;;11.63;10.55;;;;;;;;;;5052871;28;20428;-85
2023/02/12 12:10:43;;;;;;;11.23;10.23;;;;;;;;;;5053559;28;20716;-85
2023/02/12 12:13:15;;;;;;;10.90;9.90;;;;;;;;;;5052252;28;20819;-86
2023/02/12 12:21:25;;;;;;;9.93;9.02;;;;;;;;;;5053330;28;20916;-86
2023/02/12 12:23:54;;;;;;;10.52;9.63;;;;;;;;;;5053220;28;20384;-85
2023/02/12 12:26:23;;;;;;;10.02;9.13;;;;;;;;;;5052531;28;20377;-86
2023/02/12 12:28:52;;;;;;;10.48;9.48;;;;;;;;;;5053107;28;20389;-86
2023/02/12 12:31:23;;;;;;;10.15;9.27;;;;;;;;;;5042769;28;20960;-86
2023/02/12 12:34:04;;;;;;;10.52;9.52;;;;;;;;;;5052875;28;20455;-86
2023/02/12 12:36:49;;;;;;;10.60;9.50;;;;;;;;;;5052921;28;20408;-86
2023/02/12 12:39:18;;;;;;;10.25;9.35;;;;;;;;;;5052764;28;20833;-86
2023/02/12 12:41:46;;;;;;;10.73;9.73;;;;;;;;;;5052709;28;20392;-86
2023/02/12 12:44:41;;;;;;;11.05;10.05;;;;;;;;;;5052602;28;20385;-86
2023/02/12 12:47:13;;;;;;;11.60;10.40;;;;;;;;;;5052410;28;20381;-86
2023/02/12 12:49:39;;;;;;;11.63;10.52;;;;;;;;;;5051413;28;20446;-86
2023/02/12 12:52:17;;;;;;;12.07;10.75;;;;;;;;;;5051912;28;20870;-86
2023/02/12 12:54:43;;;;;;;11.13;10.02;;;;;;;;;;5051879;28;20890;-88
2023/02/12 12:57:15;;;;;;;11.03;9.90;;;;;;;;;;5051598;28;20373;-86
2023/02/12 13:00:00;;;;;;;10.85;9.75;;;;;;;;;;5050174;28;20376;-86
2023/02/12 13:02:50;;;;;;;11.23;10.13;;;;;;;;;;5052075;28;20385;-85
2023/02/12 13:05:52;;;;;;;11.07;10.05;;;;;;;;;;5043210;28;20377;-86
2023/02/12 13:08:32;;;;;;;10.52;9.52;;;;;;;;;;4952599;29;20967;-86
2023/02/12 13:11:07;;;;;;;10.15;9.15;;;;;;;;;;5042164;28;20460;-86
2023/02/12 13:13:35;;;;;;;10.30;9.40;;;;;;;;;;5052191;28;20474;-85
2023/02/12 13:16:10;;;;;;;10.57;9.50;;;;;;;;;;5052200;28;20408;-85
2023/02/12 13:18:39;;;;;;;10.30;9.40;;;;;;;;;;5051279;28;20906;-86
2023/02/12 13:21:13;;;;;;;10.18;9.23;;;;;;;;;;5051772;28;20937;-85
2023/02/12 13:23:55;;;;;;;9.70;8.80;;;;;;;;;;5052020;28;20386;-85
2023/02/12 13:26:29;;;;;;;9.10;8.20;;;;;;;;;;5054635;28;20376;-85
2023/02/12 13:29:07;;;;;;;9.73;8.00;;;;;;;;;;5056416;28;20512;-86
2023/02/12 13:31:35;;;;;;;9.32;8.52;;;;;;;;;;5056323;28;20380;-86
2023/02/12 13:34:04;;;;;;;8.97;8.07;;;;;;;;;;5056150;28;20438;-86
2023/02/12 13:36:30;;;;;;;8.95;8.05;;;;;;;;;;5056067;28;20405;-85
2023/02/12 13:39:00;;;;;;;8.70;7.90;;;;;;;;;;5055679;28;20380;-85
2023/02/12 13:41:26;;;;;;;8.98;8.07;;;;;;;;;;5055613;28;20384;-85
2023/02/12 13:43:58;;;;;;;9.30;8.50;;;;;;;;;;5055878;28;20439;-86
2023/02/12 13:46:29;;;;;;;8.70;7.90;;;;;;;;;;5055835;28;20454;-86
2023/02/12 13:49:09;;;;;;;9.05;8.25;;;;;;;;;;5056146;28;20421;-86
2023/02/12 13:51:48;;;;;;;8.52;7.72;;;;;;;;;;5056101;28;20380;-86
2023/02/12 13:54:29;;;;;;;13.20;11.80;;;;;;;;;;5037544;28;20882;-85
2023/02/12 13:57:00;;;;;;;8.07;7.40;;;;;;;;;;5055683;28;20369;-86
2023/02/12 13:59:35;;;;;;;8.20;7.50;;;;;;;;;;5051050;28;20389;-85
2023/02/12 14:02:02;;;;;;;8.38;7.57;;;;;;;;;;5052772;28;20392;-86
2023/02/12 14:04:30;;;;;;;8.20;7.50;;;;;;;;;;5047408;28;20991;-86
2023/02/12 14:07:11;;;;;;;7.85;7.18;;;;;;;;;;5041226;28;20385;-85
2023/02/12 14:09:39;;;;;;;8.38;7.57;;;;;;;;;;5055436;28;20377;-86
2023/02/12 14:12:08;;;;;;;8.90;8.10;;;;;;;;;;5055505;28;20531;-87
2023/02/12 14:14:35;;;;;;;8.70;7.85;;;;;;;;;;5055965;28;20428;-87
2023/02/12 14:17:20;;;;;;;8.00;7.28;;;;;;;;;;5065471;28;20378;-89
2023/02/12 14:19:52;;;;;;;8.80;8.00;;;;;;;;;;5066829;28;20380;-89
2023/02/12 14:22:27;;;;;;;9.00;8.20;;;;;;;;;;5041946;28;20395;-88
2023/02/12 14:24:57;;;;;;;8.60;7.80;;;;;;;;;;5061612;28;20886;-89
2023/02/12 14:27:26;;;;;;;8.73;7.93;;;;;;;;;;5071892;28;20439;-89
2023/02/12 14:30:02;;;;;;;9.13;8.32;;;;;;;;;;5062028;28;20385;-88
2023/02/12 14:32:47;;;;;;;8.77;7.97;;;;;;;;;;5056748;28;20432;-85
2023/02/12 14:35:31;;;;;;;8.85;8.02;;;;;;;;;;5055600;28;20416;-87
2023/02/12 14:38:00;;;;;;;8.68;7.95;;;;;;;;;;5052267;28;20386;-86
2023/02/12 14:40:33;;;;;;;9.13;8.30;;;;;;;;;;5037554;28;20377;-87
2023/02/12 14:42:59;;;;;;;9.13;8.23;;;;;;;;;;5055649;28;20370;-87
2023/02/12 14:45:31;;;;;;;9.52;8.63;;;;;;;;;;5055151;28;20390;-86
2023/02/12 14:47:58;;;;;;;8.90;8.10;;;;;;;;;;5037523;28;20392;-88
2023/02/12 14:50:49;;;;;;;8.98;8.18;;;;;;;;;;5054379;28;20379;-89